Time;durP1;ratioP1;P1;durP2;ratioP2;P2;SDS_P1;SDS_P2;PMS_P1;PMS_P2;Temp;Humidity;BMP_temperature;BMP_pressure;BME280_temperature;BME280_humidity;BME280_pressure;Samples;Min_cycle;Max_cycle;Signal;HPM_P1;HPM_P2
2023/01/25 00:01:43;;;;;;;;;48.75;40.50;;;;;3.67;70.31;101891.38;5000325;28;45530;-68
2023/01/25 00:04:09;;;;;;;;;42.50;37.75;;;;;3.67;70.16;101887.91;4997980;28;45997;-68
2023/01/25 00:06:34;;;;;;;;;45.50;39.00;;;;;3.67;69.93;101890.47;5001258;28;46104;-70
2023/01/25 00:09:00;;;;;;;;;44.25;38.50;;;;;3.45;69.69;101860.34;5003856;28;45643;-69
2023/01/25 00:11:25;;;;;;;;;42.75;37.25;;;;;3.62;70.11;101891.78;5000167;28;45497;-68
2023/01/25 00:13:54;;;;;;;;;45.75;41.00;;;;;3.59;69.95;101879.53;4998279;28;45629;-69
2023/01/25 00:16:20;;;;;;;;;47.00;36.25;;;;;3.62;69.69;101879.78;5001295;28;45378;-69
2023/01/25 00:18:45;;;;;;;;;44.00;39.25;;;;;3.63;69.21;101881.56;5001289;28;45402;-68
2023/01/25 00:21:18;;;;;;;;;45.75;36.50;;;;;3.61;68.94;101874.50;5004398;28;45430;-69
2023/01/25 00:23:43;;;;;;;;;47.50;40.50;;;;;3.31;69.78;101828.25;5003215;28;46135;-68
2023/01/25 00:26:09;;;;;;;;;44.00;39.50;;;;;3.55;69.35;101870.63;5030352;28;45537;-69
2023/01/25 00:28:35;;;;;;;;;43.50;37.25;;;;;3.54;69.69;101875.66;5002236;28;45542;-69
2023/01/25 00:31:05;;;;;;;;;40.75;38.00;;;;;3.37;70.23;101844.22;4996905;28;45487;-70
2023/01/25 00:33:36;;;;;;;;;43.75;38.25;;;;;3.54;69.45;101865.31;5007835;28;45558;-69
2023/01/25 00:36:22;;;;;;;;;35.75;34.00;;;;;3.52;70.21;101854.91;4998181;28;45517;-69
2023/01/25 00:38:47;;;;;;;;;44.25;37.50;;;;;3.38;70.58;101834.78;5002652;28;45718;-68
2023/01/25 00:41:13;;;;;;;;;43.25;38.75;;;;;3.33;70.31;101811.19;5000360;28;45543;-68
2023/01/25 00:43:38;;;;;;;;;41.50;38.00;;;;;3.53;70.87;101850.63;5000624;28;45526;-68
2023/01/25 00:46:04;;;;;;;;;37.00;32.00;;;;;3.55;70.92;101851.66;4998239;28;45321;-68
2023/01/25 00:48:29;;;;;;;;;43.75;36.75;;;;;3.37;70.88;101828.72;5005492;28;45396;-68
2023/01/25 00:51:00;;;;;;;;;48.50;40.50;;;;;3.50;71.03;101847.78;5001332;28;45476;-68
2023/01/25 00:53:26;;;;;;;;;53.25;40.75;;;;;3.47;70.91;101844.97;5003863;28;46262;-68
2023/01/25 00:55:52;;;;;;;;;53.75;43.25;;;;;3.46;71.81;101848.31;5000962;28;45722;-68
2023/01/25 00:58:18;;;;;;;;;43.00;39.50;;;;;3.37;71.63;101851.97;5000253;28;45458;-69
2023/01/25 01:00:43;;;;;;;;;45.75;40.50;;;;;3.41;71.48;101847.06;5000069;28;45561;-69
2023/01/25 01:03:09;;;;;;;;;45.00;37.25;;;;;3.39;71.33;101846.94;5001093;28;45967;-68
2023/01/25 01:05:35;;;;;;;;;41.00;36.25;;;;;3.46;70.69;101857.00;5001801;28;45510;-68
2023/01/25 01:08:01;;;;;;;;;46.25;39.75;;;;;3.43;70.52;101861.91;5012584;28;45486;-68
2023/01/25 01:10:27;;;;;;;;;40.25;34.00;;;;;3.42;70.77;101865.25;5004968;28;45378;-68
2023/01/25 01:12:52;;;;;;;;;42.00;30.25;;;;;3.49;70.16;101864.09;5007682;28;45985;-69
2023/01/25 01:15:18;;;;;;;;;37.75;33.50;;;;;3.44;69.20;101855.03;5005650;28;45350;-69
2023/01/25 01:17:43;;;;;;;;;33.25;27.25;;;;;3.53;68.81;101864.44;5004712;28;45538;-69
2023/01/25 01:20:09;;;;;;;;;42.00;34.75;;;;;3.52;68.71;101864.31;5010501;28;45591;-68
2023/01/25 01:22:35;;;;;;;;;47.75;35.75;;;;;3.47;68.36;101873.38;5009022;28;45430;-68
2023/01/25 01:25:01;;;;;;;;;44.75;36.50;;;;;3.39;68.86;101865.91;5003341;28;45427;-68
2023/01/25 01:27:26;;;;;;;;;40.00;35.50;;;;;3.42;69.17;101869.53;5006856;28;45491;-68
2023/01/25 01:29:52;;;;;;;;;35.75;33.75;;;;;3.44;68.66;101868.84;5009751;28;45287;-68
2023/01/25 01:32:17;;;;;;;;;36.50;32.00;;;;;3.48;68.65;101870.00;5012798;28;46185;-69
2023/01/25 01:34:43;;;;;;;;;39.75;35.75;;;;;3.52;68.82;101869.47;5003071;28;45483;-69
2023/01/25 01:37:09;;;;;;;;;45.75;34.00;;;;;3.53;68.42;101871.28;5006725;28;45793;-68
2023/01/25 01:39:34;;;;;;;;;43.25;35.25;;;;;3.51;68.30;101875.44;5005538;28;45423;-68
2023/01/25 01:42:00;;;;;;;;;37.25;34.00;;;;;3.48;68.52;101873.53;5008025;28;45524;-69
2023/01/25 01:44:48;;;;;;;;;41.50;37.00;;;;;3.46;68.90;101882.84;5005380;28;45428;-68
2023/01/25 01:47:26;;;;;;;;;50.50;37.50;;;;;3.32;68.45;101842.06;5007329;28;45518;-68
2023/01/25 01:50:01;;;;;;;;;46.25;38.50;;;;;3.26;68.55;101832.13;5011712;28;45494;-69
2023/01/25 01:52:32;;;;;;;;;44.25;37.75;;;;;3.53;68.45;101885.09;5007699;28;45435;-69
2023/01/25 01:55:16;;;;;;;;;39.25;33.75;;;;;3.30;68.41;101846.19;5006719;28;45211;-68
2023/01/25 01:57:56;;;;;;;;;38.00;35.50;;;;;3.48;68.37;101882.94;5000761;28;45523;-68
2023/01/25 02:00:26;;;;;;;;;40.50;36.25;;;;;3.48;68.87;101882.94;5009269;28;45627;-68
2023/01/25 02:02:53;;;;;;;;;30.50;24.50;;;;;3.42;68.15;101865.25;5007215;28;46181;-67
2023/01/25 02:05:26;;;;;;;;;39.00;34.75;;;;;3.47;68.19;101884.63;5015994;28;45357;-67
2023/01/25 02:07:54;;;;;;;;;42.50;38.25;;;;;3.46;68.69;101889.66;5015348;28;45564;-68
2023/01/25 02:10:22;;;;;;;;;40.50;36.75;;;;;3.49;68.17;101877.88;5015515;28;45426;-68
2023/01/25 02:12:48;;;;;;;;;38.00;34.50;;;;;3.50;68.44;101884.88;5026964;28;47100;-68
2023/01/25 02:15:14;;;;;;;;;42.50;37.75;;;;;3.55;68.31;101895.56;5004211;28;45517;-68
2023/01/25 02:17:41;;;;;;;;;39.75;34.25;;;;;3.52;68.50;101900.47;5015790;28;45412;-68
2023/01/25 02:20:34;;;;;;;;;29.25;24.00;;;;;3.55;69.10;101898.16;5000140;28;45257;-68
2023/01/25 02:23:07;;;;;;;;;35.00;31.25;;;;;3.57;68.52;101899.19;5003712;28;46078;-69
2023/01/25 02:25:33;;;;;;;;;35.50;30.75;;;;;3.61;69.10;101893.47;5015310;28;45301;-69
2023/01/25 02:28:31;;;;;;;;;41.25;31.50;;;;;3.65;68.23;101895.50;5018576;28;45284;-70
2023/01/25 02:30:56;;;;;;;;;39.25;37.00;;;;;3.43;68.66;101849.00;5013225;28;45411;-70
2023/01/25 02:33:26;;;;;;;;;41.50;29.75;;;;;3.63;68.70;101881.56;5018786;28;46152;-69
2023/01/25 02:36:20;;;;;;;;;35.25;30.25;;;;;3.71;68.07;101884.78;5018357;28;45632;-69
2023/01/25 02:39:06;;;;;;;;;42.00;30.00;;;;;3.73;68.45;101894.44;5016728;28;45316;-69
2023/01/25 02:41:38;;;;;;;;;40.00;37.00;;;;;3.72;67.98;101887.47;5018582;28;47182;-69
2023/01/25 02:44:28;;;;;;;;;37.00;30.00;;;;;3.73;67.96;101894.44;5004207;28;46191;-69
2023/01/25 02:46:54;;;;;;;;;31.00;26.50;;;;;3.75;68.77;101900.63;5018819;28;45253;-69
2023/01/25 02:49:20;;;;;;;;;37.25;32.25;;;;;3.74;68.26;101906.59;5018634;28;45504;-70
2023/01/25 02:51:48;;;;;;;;;35.75;30.00;;;;;3.74;68.56;101914.34;5003535;28;45302;-69
2023/01/25 02:54:16;;;;;;;;;29.25;27.50;;;;;3.76;68.94;101915.38;5033343;28;45563;-69
2023/01/25 02:56:42;;;;;;;;;40.25;32.75;;;;;3.77;68.67;101916.25;5018283;28;45452;-69
2023/01/25 02:59:09;;;;;;;;;37.75;30.50;;;;;3.80;68.76;101924.28;5030568;28;45742;-69
2023/01/25 03:01:39;;;;;;;;;29.00;26.75;;;;;3.68;68.04;101894.84;5011020;28;45419;-69
2023/01/25 03:04:05;;;;;;;;;36.50;30.25;;;;;3.86;68.63;101926.41;5018040;28;47065;-68
2023/01/25 03:06:31;;;;;;;;;39.25;33.25;;;;;3.87;68.15;101917.91;5018308;28;45388;-69
2023/01/25 03:08:57;;;;;;;;;42.00;37.25;;;;;3.63;68.29;101872.94;5020973;28;45512;-69
2023/01/25 03:11:23;;;;;;;;;42.50;33.00;;;;;3.90;68.12;101902.59;5018492;28;45529;-68
2023/01/25 03:13:48;;;;;;;;;37.75;34.00;;;;;3.91;68.70;101909.59;5006270;28;45881;-68
2023/01/25 03:16:16;;;;;;;;;46.25;37.50;;;;;3.79;68.05;101897.50;5014971;28;45577;-68
2023/01/25 03:18:42;;;;;;;;;44.75;38.00;;;;;3.90;67.74;101915.53;5017751;28;45443;-68
2023/01/25 03:21:25;;;;;;;;;43.75;35.00;;;;;3.88;68.30;101907.69;5018582;28;45454;-67
2023/01/25 03:23:56;;;;;;;;;43.75;35.25;;;;;3.88;67.86;101910.28;5017615;28;45434;-69
2023/01/25 03:26:23;;;;;;;;;38.00;32.50;;;;;3.88;67.92;101914.50;5017937;28;45434;-69
2023/01/25 03:28:49;;;;;;;;;38.25;32.50;;;;;3.83;68.80;101915.84;5018172;28;45299;-69
2023/01/25 03:31:15;;;;;;;;;45.25;38.00;;;;;3.85;68.77;101922.03;5018835;28;45281;-69
2023/01/25 03:33:42;;;;;;;;;40.25;35.25;;;;;3.85;68.40;101914.28;5018553;28;45431;-69
2023/01/25 03:36:08;;;;;;;;;42.25;33.50;;;;;3.83;68.55;101911.56;5017871;28;45496;-69
2023/01/25 03:38:34;;;;;;;;;36.75;33.25;;;;;3.84;68.57;101913.41;5017802;28;45479;-69
2023/01/25 03:41:00;;;;;;;;;36.25;34.50;;;;;3.87;68.41;101920.47;5017522;28;45503;-69
2023/01/25 03:43:26;;;;;;;;;37.00;32.25;;;;;3.86;68.46;101916.06;5017696;28;45404;-69
2023/01/25 03:45:56;;;;;;;;;39.00;30.25;;;;;3.89;68.87;101924.09;5017056;28;45443;-68
2023/01/25 03:48:23;;;;;;;;;40.00;34.00;;;;;3.58;68.41;101859.63;5017908;28;45470;-69
2023/01/25 03:50:57;;;;;;;;;36.50;33.00;;;;;3.90;69.15;101912.94;5018420;28;45481;-69
2023/01/25 03:53:31;;;;;;;;;36.75;31.50;;;;;3.72;69.19;101894.31;5017769;28;45754;-69
2023/01/25 03:56:03;;;;;;;;;41.25;37.00;;;;;3.91;69.23;101922.53;5017930;28;45532;-68
2023/01/25 03:58:30;;;;;;;;;38.25;34.50;;;;;3.91;68.64;101919.94;5018186;28;45439;-68
2023/01/25 04:00:58;;;;;;;;;38.50;33.00;;;;;3.82;69.05;101912.38;5017591;28;45454;-69
2023/01/25 04:03:25;;;;;;;;;41.25;34.50;;;;;3.78;68.53;101916.41;5016800;28;45649;-68
2023/01/25 04:05:51;;;;;;;;;36.75;32.00;;;;;3.76;68.47;101917.03;5016767;28;45432;-68
2023/01/25 04:08:19;;;;;;;;;36.75;33.00;;;;;3.76;68.69;101911.84;5017121;28;45439;-68
2023/01/25 04:10:52;;;;;;;;;36.75;31.25;;;;;3.79;68.30;101905.25;5017217;28;45139;-68
2023/01/25 04:13:19;;;;;;;;;37.75;33.75;;;;;3.78;68.01;101905.16;5017242;28;45773;-69
2023/01/25 04:15:45;;;;;;;;;42.25;36.00;;;;;3.79;68.08;101907.84;5014726;28;45387;-68
2023/01/25 04:18:11;;;;;;;;;38.00;29.75;;;;;3.56;68.33;101869.84;5018213;28;45479;-68
2023/01/25 04:20:37;;;;;;;;;34.25;29.50;;;;;3.81;68.38;101902.81;5017080;28;45434;-68
2023/01/25 04:23:02;;;;;;;;;38.25;33.00;;;;;3.78;68.03;101892.25;5016654;28;46019;-68
2023/01/25 04:25:28;;;;;;;;;37.75;29.75;;;;;3.82;68.91;101903.69;5017008;28;45352;-68
2023/01/25 04:27:53;;;;;;;;;39.50;33.75;;;;;3.75;68.88;101897.16;5017293;28;45588;-68
2023/01/25 04:30:19;;;;;;;;;33.00;28.25;;;;;3.82;68.71;101911.44;5016290;28;45655;-68
2023/01/25 04:32:45;;;;;;;;;39.75;36.00;;;;;3.46;69.39;101846.66;5016480;28;45768;-68
2023/01/25 04:35:11;;;;;;;;;37.00;33.25;;;;;3.81;69.38;101920.00;5016829;28;45411;-68
2023/01/25 04:37:36;;;;;;;;;30.00;28.50;;;;;3.63;68.75;101879.00;5015373;28;45502;-68
2023/01/25 04:40:03;;;;;;;;;34.00;28.50;;;;;3.79;68.68;101896.59;5016324;28;45506;-68
2023/01/25 04:42:28;;;;;;;;;39.00;33.25;;;;;3.79;69.00;101900.09;5016906;28;46306;-68
2023/01/25 04:44:54;;;;;;;;;37.00;32.75;;;;;3.79;68.97;101900.09;5016194;28;45428;-68
2023/01/25 04:47:19;;;;;;;;;36.75;34.25;;;;;3.67;68.75;101883.63;5010566;28;45852;-68
2023/01/25 04:49:45;;;;;;;;;33.25;32.50;;;;;3.82;69.14;101903.69;5007668;28;45664;-68
2023/01/25 04:52:10;;;;;;;;;38.00;29.50;;;;;3.78;69.33;101908.63;5016848;28;45775;-68
2023/01/25 04:54:36;;;;;;;;;41.50;34.50;;;;;3.79;69.18;101904.38;5015873;28;45481;-69
2023/01/25 04:57:02;;;;;;;;;42.25;34.75;;;;;3.63;69.42;101880.69;5016982;28;45445;-68
2023/01/25 04:59:28;;;;;;;;;39.25;32.25;;;;;3.81;69.61;101897.63;5017714;28;45312;-68
2023/01/25 05:01:53;;;;;;;;;28.00;26.00;;;;;3.83;68.96;101908.09;5016765;28;46097;-67
2023/01/25 05:04:19;;;;;;;;;36.00;32.75;;;;;3.83;69.42;101908.09;5016402;28;45774;-68
2023/01/25 05:06:44;;;;;;;;;42.50;38.50;;;;;3.83;69.46;101910.69;5003933;28;45618;-68
2023/01/25 05:09:10;;;;;;;;;36.75;31.00;;;;;3.84;69.40;101915.06;5013705;28;45312;-68
2023/01/25 05:11:35;;;;;;;;;33.25;30.00;;;;;3.85;69.12;101924.63;5016577;28;45475;-69
2023/01/25 05:14:01;;;;;;;;;36.75;31.25;;;;;3.76;68.71;101905.03;5016001;28;46186;-69
2023/01/25 05:16:26;;;;;;;;;37.50;33.00;;;;;3.66;68.42;101887.00;5016122;28;45464;-68
2023/01/25 05:18:54;;;;;;;;;34.25;32.50;;;;;3.84;69.02;101921.16;5015349;28;45382;-70
2023/01/25 05:24:04;;;;;;;;;41.00;36.00;;;;;3.82;68.45;101924.38;5015044;28;45739;-68
2023/01/25 05:29:13;;;;;;;;;41.75;37.00;;;;;3.81;69.06;101917.41;5013133;28;45304;-69
2023/01/25 05:31:39;;;;;;;;;41.25;34.75;;;;;3.81;69.53;101923.47;5015086;28;45505;-68
2023/01/25 05:34:04;;;;;;;;;45.25;38.25;;;;;3.62;69.75;101887.53;5014858;28;45590;-68
2023/01/25 05:36:30;;;;;;;;;41.25;32.75;;;;;3.79;69.12;101918.19;5012797;28;45527;-69
2023/01/25 05:38:55;;;;;;;;;38.50;32.00;;;;;3.71;69.19;101903.75;5013902;28;45375;-67
2023/01/25 05:41:21;;;;;;;;;41.25;34.50;;;;;3.76;69.55;101911.84;5014892;28;46099;-65
2023/01/25 05:43:48;;;;;;;;;36.00;31.50;;;;;3.73;69.19;101916.81;5015202;28;45638;-69
2023/01/25 05:46:13;;;;;;;;;29.00;26.50;;;;;3.74;69.10;101916.94;5014102;28;45556;-69
2023/01/25 05:48:39;;;;;;;;;37.75;35.00;;;;;3.76;69.23;101917.03;5014051;28;45446;-68
2023/01/25 05:51:05;;;;;;;;;36.00;27.75;;;;;3.56;69.34;101876.69;5013298;28;45999;-68
2023/01/25 05:53:31;;;;;;;;;34.25;31.75;;;;;3.79;69.33;101914.69;5014789;28;45722;-69
2023/01/25 05:56:04;;;;;;;;;44.75;36.75;;;;;3.81;69.65;101909.66;5012893;28;45620;-67
2023/01/25 05:58:29;;;;;;;;;35.75;25.50;;;;;3.84;70.08;101915.06;5012379;28;45513;-68
2023/01/25 06:00:54;;;;;;;;;34.25;31.00;;;;;3.81;70.22;101917.41;5016413;28;45536;-67
2023/01/25 06:03:20;;;;;;;;;38.75;36.00;;;;;3.83;70.18;101915.84;5018364;28;45482;-69
2023/01/25 06:05:46;;;;;;;;;42.25;34.00;;;;;3.84;70.15;101913.41;5018207;28;45420;-68
2023/01/25 06:08:11;;;;;;;;;45.25;41.25;;;;;3.83;69.75;101910.69;5017633;28;45502;-68
2023/01/25 06:10:37;;;;;;;;;51.00;43.75;;;;;3.67;70.47;101904.28;5015788;28;46161;-68
2023/01/25 06:13:02;;;;;;;;;50.50;41.75;;;;;3.73;70.15;101909.94;5018152;28;45425;-69
2023/01/25 06:15:28;;;;;;;;;56.00;46.25;;;;;3.74;69.93;101911.75;5018334;28;45360;-67
2023/01/25 06:17:54;;;;;;;;;45.25;38.25;;;;;3.74;69.87;101914.34;5015949;28;45369;-65
2023/01/25 06:20:20;;;;;;;;;46.50;42.50;;;;;3.76;69.91;101917.03;5016296;28;46037;-70
2023/01/25 06:22:50;;;;;;;;;40.25;37.75;;;;;3.76;69.62;101915.38;5017976;28;45670;-69
2023/01/25 06:25:16;;;;;;;;;43.25;38.25;;;;;3.79;69.74;101920.75;5015769;28;45569;-69
2023/01/25 06:27:41;;;;;;;;;42.50;34.25;;;;;3.79;70.10;101925.03;5016796;28;45494;-69
2023/01/25 06:30:07;;;;;;;;;38.25;35.00;;;;;3.79;70.02;101919.88;5017699;28;46100;-67
2023/01/25 06:32:33;;;;;;;;;43.00;37.25;;;;;3.79;70.58;101927.63;5018497;28;45558;-69
2023/01/25 06:34:58;;;;;;;;;52.00;41.50;;;;;3.75;70.60;101916.13;5018779;28;45642;-69
2023/01/25 06:37:24;;;;;;;;;44.25;38.00;;;;;3.55;71.00;101885.25;5013538;28;45622;-69
2023/01/25 06:39:49;;;;;;;;;37.75;32.00;;;;;3.69;71.04;101923.41;5006067;28;46176;-69
2023/01/25 06:42:15;;;;;;;;;44.50;36.75;;;;;3.73;70.74;101922.88;5018528;28;45336;-70
2023/01/25 06:44:40;;;;;;;;;45.25;39.75;;;;;3.76;70.89;101928.28;5019017;28;45522;-69
2023/01/25 06:47:08;;;;;;;;;42.00;39.75;;;;;3.76;70.51;101935.13;5018694;28;45583;-70
2023/01/25 06:49:33;;;;;;;;;52.25;43.50;;;;;3.61;70.90;101906.38;5018458;28;46005;-69
2023/01/25 06:52:00;;;;;;;;;45.25;37.75;;;;;3.55;70.26;101892.97;5017802;28;45549;-69
2023/01/25 06:54:26;;;;;;;;;42.75;36.25;;;;;3.76;69.98;101932.53;5018641;28;45363;-70
2023/01/25 06:56:51;;;;;;;;;40.00;33.75;;;;;3.77;70.69;101953.34;5018343;28;46162;-70
2023/01/25 06:59:17;;;;;;;;;40.50;37.25;;;;;3.82;70.35;101945.06;5018362;28;46201;-70
2023/01/25 07:01:42;;;;;;;;;42.25;36.25;;;;;3.82;70.08;101943.41;5007853;28;45440;-70
2023/01/25 07:04:12;;;;;;;;;40.00;36.25;;;;;3.82;70.24;101945.06;5013228;28;45355;-70
2023/01/25 07:06:39;;;;;;;;;44.50;40.00;;;;;3.78;70.07;101937.06;5017728;28;45383;-70
2023/01/25 07:09:11;;;;;;;;;49.50;40.00;;;;;3.82;70.50;101952.81;5017404;28;45629;-70
2023/01/25 07:11:37;;;;;;;;;47.00;38.50;;;;;3.77;70.14;101955.03;5017929;28;45411;-71
2023/01/25 07:14:03;;;;;;;;;56.75;39.00;;;;;3.82;70.60;101955.38;5018427;28;45359;-67
2023/01/25 07:16:35;;;;;;;;;45.00;37.75;;;;;3.85;70.47;101953.06;5019162;28;45438;-69
2023/01/25 07:19:02;;;;;;;;;36.25;32.75;;;;;3.84;70.17;101957.34;5015955;28;46127;-70
2023/01/25 07:21:27;;;;;;;;;41.75;34.50;;;;;3.62;70.24;101921.13;5017325;28;46030;-70
2023/01/25 07:23:53;;;;;;;;;37.75;34.50;;;;;3.85;70.60;101961.72;5013820;28;45300;-69
2023/01/25 07:26:22;;;;;;;;;42.25;38.50;;;;;3.68;70.44;101931.97;5016982;28;45570;-69
2023/01/25 07:28:48;;;;;;;;;47.25;39.25;;;;;3.84;70.73;101949.59;5013531;28;47053;-69
2023/01/25 07:31:16;;;;;;;;;50.25;40.25;;;;;3.85;70.01;101948.78;5013552;28;45359;-70
2023/01/25 07:33:42;;;;;;;;;54.50;44.50;;;;;3.87;70.12;101948.91;5016433;28;45489;-69
2023/01/25 07:36:09;;;;;;;;;46.75;41.50;;;;;3.88;70.56;101953.28;5016985;28;45327;-70
2023/01/25 07:38:35;;;;;;;;;46.25;39.75;;;;;3.89;70.25;101952.53;5014181;28;45447;-69
2023/01/25 07:41:02;;;;;;;;;44.25;39.75;;;;;3.91;70.48;101963.88;5016375;28;45407;-69
2023/01/25 07:43:28;;;;;;;;;49.75;42.25;;;;;3.91;69.93;101961.31;5016630;28;45535;-69
2023/01/25 07:46:03;;;;;;;;;52.00;43.50;;;;;3.92;69.74;101958.84;5017205;28;45443;-69
2023/01/25 07:48:28;;;;;;;;;58.25;47.25;;;;;3.91;70.02;101956.13;5017402;28;45427;-69
2023/01/25 07:51:10;;;;;;;;;56.50;42.50;;;;;3.91;69.88;101961.31;5015799;28;45297;-69
2023/01/25 07:53:41;;;;;;;;;57.50;43.75;;;;;3.90;68.95;101960.41;5016274;28;45550;-69
2023/01/25 07:56:08;;;;;;;;;44.75;37.75;;;;;3.89;69.05;101968.03;5015206;28;45467;-70
2023/01/25 07:58:34;;;;;;;;;38.75;37.50;;;;;3.87;68.73;101965.31;5014534;28;45482;-69
2023/01/25 08:01:10;;;;;;;;;42.25;31.00;;;;;3.81;68.28;101961.34;5010807;28;45516;-70
2023/01/25 08:03:36;;;;;;;;;33.50;29.25;;;;;3.82;67.66;101968.31;5011482;28;45693;-69
2023/01/25 08:06:04;;;;;;;;;33.75;29.25;;;;;3.86;67.50;101970.38;5016205;28;45649;-69
2023/01/25 08:08:34;;;;;;;;;37.75;32.25;;;;;3.70;67.90;101945.91;5010618;28;46081;-68
2023/01/25 08:11:09;;;;;;;;;56.25;44.00;;;;;3.72;67.70;101948.59;5012913;28;45427;-69
2023/01/25 08:13:35;;;;;;;;;68.00;52.00;;;;;3.89;67.14;101970.63;5013612;28;45421;-67
2023/01/25 08:16:00;;;;;;;;;47.25;41.75;;;;;3.81;68.01;101943.25;5015192;28;45483;-69
2023/01/25 08:18:26;;;;;;;;;40.25;35.75;;;;;3.98;68.58;101969.69;5014829;28;45435;-68
2023/01/25 08:20:52;;;;;;;;;42.75;34.00;;;;;4.02;68.30;101968.25;5016566;28;45590;-69
2023/01/25 08:23:19;;;;;;;;;35.75;32.25;;;;;4.05;68.50;101972.75;5015864;28;45413;-69
2023/01/25 08:25:45;;;;;;;;;39.00;36.50;;;;;4.08;68.64;101971.31;5017348;28;45521;-69
2023/01/25 08:28:10;;;;;;;;;39.50;33.00;;;;;4.10;68.53;101972.31;5016553;28;45968;-69
2023/01/25 08:30:36;;;;;;;;;45.75;38.00;;;;;4.13;68.96;101969.06;5016892;28;45456;-69
2023/01/25 08:33:01;;;;;;;;;40.75;35.00;;;;;4.13;68.59;101972.56;5017133;28;45498;-69
2023/01/25 08:35:27;;;;;;;;;39.25;31.00;;;;;4.18;68.74;101971.25;5017411;28;45400;-70
2023/01/25 08:37:52;;;;;;;;;37.75;30.25;;;;;4.22;68.96;101968.88;5016673;28;45901;-68
2023/01/25 08:40:18;;;;;;;;;39.00;31.25;;;;;4.24;68.75;101968.25;5016949;28;45404;-68
2023/01/25 08:42:43;;;;;;;;;37.50;30.50;;;;;4.28;68.02;101967.69;5016840;28;45261;-69
2023/01/25 08:45:09;;;;;;;;;33.75;27.50;;;;;4.32;68.01;101971.44;5016877;28;45373;-68
2023/01/25 08:47:35;;;;;;;;;37.75;31.25;;;;;4.08;68.56;101929.94;5016346;28;45351;-69
2023/01/25 08:50:00;;;;;;;;;39.00;33.00;;;;;4.35;68.63;101972.53;5016444;28;45530;-70
2023/01/25 08:52:26;;;;;;;;;39.00;29.00;;;;;4.43;68.70;101970.56;5016805;28;45385;-70
2023/01/25 08:54:51;;;;;;;;;44.00;35.25;;;;;4.46;68.44;101968.22;5016147;28;45668;-70
2023/01/25 08:57:17;;;;;;;;;35.75;30.50;;;;;4.48;68.75;101973.53;5016405;28;45999;-69
2023/01/25 08:59:43;;;;;;;;;35.00;30.25;;;;;4.41;68.73;101961.78;5016535;28;45518;-70
2023/01/25 09:02:11;;;;;;;;;34.25;29.50;;;;;4.41;68.17;101961.78;5016963;28;45558;-69
2023/01/25 09:04:37;;;;;;;;;35.50;29.00;;;;;4.56;68.30;101977.59;5001405;28;45470;-69
2023/01/25 09:07:03;;;;;;;;;32.50;28.50;;;;;4.29;67.19;101934.97;5015701;28;45526;-69
2023/01/25 09:09:30;;;;;;;;;32.75;28.75;;;;;4.52;67.71;101975.56;5016109;28;45538;-68
2023/01/25 09:11:55;;;;;;;;;44.00;35.50;;;;;4.48;68.67;101979.59;5016743;28;45827;-70
2023/01/25 09:14:21;;;;;;;;;49.00;37.75;;;;;4.45;68.93;101991.38;5000554;28;45400;-68
2023/01/25 09:16:47;;;;;;;;;39.50;36.00;;;;;4.39;69.26;101973.69;5016059;28;46104;-69
2023/01/25 09:19:13;;;;;;;;;44.25;35.00;;;;;4.34;69.29;101968.16;5014933;28;45538;-69
2023/01/25 09:21:39;;;;;;;;;44.25;36.00;;;;;4.48;69.14;101984.75;5014670;28;45431;-69
2023/01/25 09:24:05;;;;;;;;;45.50;39.00;;;;;4.53;68.79;101982.53;5015740;28;45430;-68
2023/01/25 09:26:41;;;;;;;;;40.75;32.75;;;;;4.58;68.54;101976.94;5015338;28;45924;-69
2023/01/25 09:29:09;;;;;;;;;44.50;39.25;;;;;4.66;68.21;101974.03;5014403;28;45478;-69
2023/01/25 09:31:42;;;;;;;;;43.25;39.50;;;;;4.72;67.76;101971.91;5016186;28;45721;-69
2023/01/25 09:34:10;;;;;;;;;34.00;32.25;;;;;4.74;67.86;101967.75;5015990;28;45565;-69
2023/01/25 09:36:36;;;;;;;;;46.00;42.25;;;;;4.79;67.88;101968.97;5014501;28;46143;-68
2023/01/25 09:39:02;;;;;;;;;45.00;39.75;;;;;4.71;68.22;101952.88;5011714;28;47129;-68
2023/01/25 09:41:46;;;;;;;;;56.50;39.75;;;;;4.91;68.22;101966.44;5016021;28;45384;-68
2023/01/25 09:44:32;;;;;;;;;48.00;39.50;;;;;4.98;68.14;101967.00;5016260;28;45460;-69
2023/01/25 09:47:09;;;;;;;;;49.25;40.75;;;;;5.08;67.53;101971.19;5015977;28;46224;-69
2023/01/25 09:49:51;;;;;;;;;36.50;35.25;;;;;5.19;66.85;101971.97;5016132;28;45465;-69
2023/01/25 09:52:54;;;;;;;;;39.75;35.75;;;;;5.32;66.76;101966.03;5015860;28;45552;-70
2023/01/25 09:55:23;;;;;;;;;40.00;36.00;;;;;5.36;66.60;101960.28;5015351;28;45519;-69
2023/01/25 09:57:52;;;;;;;;;45.00;39.25;;;;;5.46;66.79;101956.69;5015445;28;46118;-69
2023/01/25 10:00:22;;;;;;;;;42.25;36.25;;;;;5.51;66.46;101952.72;5015564;28;45595;-69
2023/01/25 10:02:57;;;;;;;;;39.75;34.00;;;;;5.53;66.06;101958.91;5015401;28;45437;-69
2023/01/25 10:05:27;;;;;;;;;45.00;38.00;;;;;5.51;66.71;101952.72;5015350;28;46118;-69
2023/01/25 10:07:57;;;;;;;;;39.50;34.50;;;;;5.63;66.03;101958.81;5015172;28;45309;-68
2023/01/25 10:10:34;;;;;;;;;43.00;38.75;;;;;5.68;65.90;101962.63;5030905;28;45423;-69
2023/01/25 10:13:02;;;;;;;;;41.50;37.00;;;;;5.75;65.87;101953.63;5001055;28;45410;-69
2023/01/25 10:15:38;;;;;;;;;40.50;37.00;;;;;5.78;65.27;101954.72;5015756;28;45529;-69
2023/01/25 10:18:26;;;;;;;;;40.25;37.50;;;;;5.82;65.24;101958.44;5015404;28;46032;-69
2023/01/25 10:20:58;;;;;;;;;48.00;39.50;;;;;5.71;65.23;101915.28;5015497;28;45408;-68
2023/01/25 10:23:51;;;;;;;;;39.00;36.25;;;;;6.05;65.67;101954.00;5015491;28;45445;-68
2023/01/25 10:26:25;;;;;;;;;56.75;41.50;;;;;6.10;65.10;101957.84;5015084;28;45420;-68
2023/01/25 10:29:09;;;;;;;;;49.50;41.00;;;;;6.11;64.67;101960.56;5014903;28;45484;-68
2023/01/25 10:31:45;;;;;;;;;42.25;38.00;;;;;6.14;65.15;101955.56;5014814;28;45268;-70
2023/01/25 10:34:47;;;;;;;;;42.50;38.00;;;;;6.11;65.50;101952.78;5013671;28;45403;-70
2023/01/25 10:37:17;;;;;;;;;43.75;38.00;;;;;5.93;64.67;101907.34;4953883;28;45579;-70
2023/01/25 10:39:56;;;;;;;;;42.50;38.00;;;;;6.26;64.39;101949.44;5004395;28;45363;-70
2023/01/25 10:42:26;;;;;;;;;42.50;37.25;;;;;6.31;64.50;101950.69;5000556;28;45466;-70
2023/01/25 10:44:51;;;;;;;;;47.00;37.00;;;;;6.32;64.56;101955.06;5015349;28;45520;-70
2023/01/25 10:47:22;;;;;;;;;38.00;30.75;;;;;6.32;64.44;101942.97;5016230;28;45546;-70
2023/01/25 10:49:52;;;;;;;;;43.00;38.50;;;;;6.34;64.35;101950.88;5018185;28;46343;-70
2023/01/25 10:52:21;;;;;;;;;36.75;34.25;;;;;6.24;64.31;101931.16;5018337;28;45605;-71
2023/01/25 10:54:50;;;;;;;;;27.25;25.50;;;;;6.29;64.10;101931.50;5018539;28;45483;-70
2023/01/25 10:57:19;;;;;;;;;25.00;23.00;;;;;6.42;63.55;101941.91;5018487;28;45529;-71
2023/01/25 10:59:51;;;;;;;;;29.50;25.00;;;;;6.50;63.12;101945.94;5017708;28;46255;-71
2023/01/25 11:02:35;;;;;;;;;26.50;21.25;;;;;6.54;63.21;101945.34;5018232;28;45484;-70
2023/01/25 11:05:25;;;;;;;;;25.00;20.75;;;;;6.52;62.41;101935.66;5018808;28;45615;-70
2023/01/25 11:07:50;;;;;;;;;28.75;26.50;;;;;6.58;62.43;101941.28;5012904;28;45352;-68
2023/01/25 11:10:36;;;;;;;;;32.50;26.00;;;;;6.64;62.37;101938.19;5017900;28;45522;-69
2023/01/25 11:13:14;;;;;;;;;25.75;25.00;;;;;6.68;61.58;101930.72;5017685;28;45218;-69
2023/01/25 11:15:41;;;;;;;;;23.75;20.50;;;;;6.75;61.90;101932.94;5005633;28;45587;-68
2023/01/25 11:18:15;;;;;;;;;26.75;24.75;;;;;6.83;61.65;101925.66;5018185;28;45433;-68
2023/01/25 11:20:40;;;;;;;;;25.25;21.00;;;;;6.88;61.34;101894.78;5017965;28;45471;-69
2023/01/25 11:23:20;;;;;;;;;47.75;35.00;;;;;7.04;60.70;101896.72;5016762;28;45348;-69
2023/01/25 11:25:46;;;;;;;;;38.25;33.25;;;;;7.09;59.96;101891.03;5017820;28;45439;-69
2023/01/25 11:28:22;;;;;;;;;28.25;22.75;;;;;7.13;60.22;101895.63;5018142;28;45520;-69
2023/01/25 11:30:50;;;;;;;;;16.50;11.50;;;;;7.25;59.79;101889.44;5017305;28;45291;-69